KSUT

Details ICAO KSUT
Name BRUNSWICK CO
Region United States
Timezone America/New_York (UTC-4.0)
Plans Departing 10
Arriving 6
Stats Elevation 25 ft / 8 m (AMSL)
Location 33.929261° -78.074993°
Runways 1
Magnetic Variation 9.296° W
Sunrise 2018-05-26 10:06:00 UTC / 2018-05-26 06:06:00 Local
Sunset 2018-05-27 00:15:37 UTC / 2018-05-26 20:15:37 Local
Advertisement - Login to hide

Runways

ID Width Length Bearing (true) Bearing (mag) Surface Threshold Offset Overrun Length
05 100 ft / 30 m 4,004 ft / 1,220 m 40.89° 50.19° Asphalt 0 ft / 0 m 0 ft / 0 m
23 100 ft / 30 m 4,004 ft / 1,220 m 220.90° 230.20° Asphalt 0 ft / 0 m 0 ft / 0 m

Map

Weather


0- 5 10 15 20 25 30 35+ Temperature / ° C

Clouds and Precipitation
Forecast for 2018-05-26 18:00 UTC. Updated 3 hours ago

Ground ~20,000 ft ~40,000 ft Winds

METAR

KSUT 262000Z AUTO 19011G16KT 10SM SCT016 28/23 A2997 RMK AO2 T02820226

TAF

Not found

Frequencies

Recorded 124.17 MHz AWOS 3
Approach 118.25 MHz WILMINGTON APP/DEP
Unicom 123.00 MHz CTAF/UNICOM
Warning: Do not use this data for real-world aviation or navigation. No guarantee of current accuracy is given.